Time;durP1;ratioP1;P1;durP2;ratioP2;P2;SDS_P1;SDS_P2;PMS_P1;PMS_P2;Temp;Humidity;BMP_temperature;BMP_pressure;BME280_temperature;BME280_humidity;BME280_pressure;Samples;Min_cycle;Max_cycle;Signal;HPM_P1;HPM_P2
2023/09/11 00:01:13;;;;;;;14.00;10.00;;;;;;;16.62;85.70;99895.52;109509;1253;68942;-63
2023/09/11 00:04:00;;;;;;;14.80;9.50;;;;;;;16.63;85.21;99892.15;109420;1254;73593;-59
2023/09/11 00:06:47;;;;;;;15.30;10.00;;;;;;;16.65;85.18;99895.96;109495;1254;59770;-61
2023/09/11 00:09:34;;;;;;;16.80;10.00;;;;;;;16.66;84.81;99890.92;109280;1254;60398;-62
2023/09/11 00:12:20;;;;;;;16.80;9.60;;;;;;;16.70;84.71;99892.91;109298;1254;72794;-60
2023/09/11 00:15:07;;;;;;;15.10;9.60;;;;;;;16.73;84.70;99891.71;109299;1256;68769;-59
2023/09/11 00:17:54;;;;;;;13.70;9.40;;;;;;;16.77;84.59;99891.48;109326;1254;72626;-60
2023/09/11 00:20:40;;;;;;;16.70;9.20;;;;;;;16.78;84.50;99893.84;109319;1254;58065;-59
2023/09/11 00:23:26;;;;;;;14.70;9.30;;;;;;;16.79;84.26;99895.92;109497;1253;60262;-58
2023/09/11 00:26:13;;;;;;;16.10;9.60;;;;;;;16.78;84.21;99893.15;109473;1256;73925;-59
2023/09/11 00:28:59;;;;;;;14.70;9.30;;;;;;;16.77;84.11;99895.42;109353;1254;67893;-59
2023/09/11 00:31:45;;;;;;;13.80;9.00;;;;;;;16.76;84.23;99894.23;109504;1253;70721;-59
2023/09/11 00:34:31;;;;;;;14.30;9.00;;;;;;;16.75;84.15;99893.06;109458;1253;60609;-60
2023/09/11 00:37:18;;;;;;;15.40;8.80;;;;;;;16.77;84.21;99891.66;109336;1254;61167;-60
2023/09/11 00:40:06;;;;;;;15.90;9.90;;;;;;;16.78;83.98;99897.58;109332;1254;74074;-61
2023/09/11 00:42:52;;;;;;;14.00;9.30;;;;;;;16.78;84.06;99893.28;109194;1254;67922;-62
2023/09/11 00:45:38;;;;;;;15.20;9.50;;;;;;;16.78;83.91;99889.88;109258;1255;73681;-59
2023/09/11 00:48:25;;;;;;;14.60;9.60;;;;;;;16.77;83.93;99892.45;109241;1254;59592;-60
2023/09/11 00:51:11;;;;;;;14.10;9.50;;;;;;;16.76;83.73;99891.79;109299;1254;60384;-60
2023/09/11 00:53:58;;;;;;;14.50;8.90;;;;;;;16.74;84.01;99889.84;109519;1254;74100;-59
2023/09/11 00:56:46;;;;;;;14.20;9.80;;;;;;;16.72;84.02;99886.60;109334;1254;67676;-60
2023/09/11 00:59:33;;;;;;;14.50;8.80;;;;;;;16.71;83.84;99890.09;109277;1254;72736;-59
2023/09/11 01:02:20;;;;;;;14.90;9.20;;;;;;;16.70;83.87;99886.80;109377;1254;57741;-59
2023/09/11 01:05:08;;;;;;;13.40;8.80;;;;;;;16.69;83.73;99884.25;109508;1254;60225;-60
2023/09/11 01:07:55;;;;;;;13.70;9.40;;;;;;;16.66;83.75;99884.88;109352;1253;72688;-61
2023/09/11 01:10:42;;;;;;;13.70;9.50;;;;;;;16.63;83.97;99877.85;109186;1254;68944;-60
2023/09/11 01:13:28;;;;;;;13.30;9.30;;;;;;;16.62;84.15;99880.10;109196;1254;73540;-60
2023/09/11 01:16:28;;;;;;;14.30;9.20;;;;;;;16.62;83.97;99881.17;109292;1254;60338;-59
2023/09/11 01:19:42;;;;;;;14.30;8.70;;;;;;;16.62;84.07;99874.41;109205;1254;58456;-61
2023/09/11 01:22:38;;;;;;;13.50;8.50;;;;;;;16.62;83.80;99875.66;109377;1254;74094;-61
2023/09/11 01:26:13;;;;;;;13.70;8.50;;;;;;;16.62;83.68;99869.18;109400;1254;68001;-62
2023/09/11 01:29:11;;;;;;;13.70;8.60;;;;;;;16.61;83.65;99870.89;109485;1254;72691;-61
2023/09/11 01:32:02;;;;;;;13.30;8.30;;;;;;;16.59;84.03;99869.38;109485;1254;59018;-63
2023/09/11 01:34:48;;;;;;;14.00;9.20;;;;;;;16.53;84.07;99866.20;109272;1253;60094;-60
2023/09/11 01:37:34;;;;;;;14.00;8.80;;;;;;;16.50;84.13;99866.19;109490;1254;74313;-60
2023/09/11 01:40:24;;;;;;;14.70;9.30;;;;;;;16.45;84.10;99861.27;109514;1254;66640;-60
2023/09/11 01:43:13;;;;;;;14.70;8.90;;;;;;;16.39;84.21;99856.02;109484;1254;72748;-64
2023/09/11 01:46:02;;;;;;;14.40;9.20;;;;;;;16.42;84.24;99860.42;109293;1254;58658;-60
2023/09/11 01:48:51;;;;;;;13.80;8.60;;;;;;;16.40;84.27;99860.98;109493;1254;60313;-60
2023/09/11 01:51:40;;;;;;;15.80;9.00;;;;;;;16.38;84.30;99858.36;109328;1254;72023;-59
2023/09/11 01:54:27;;;;;;;16.10;9.00;;;;;;;16.35;84.49;99855.71;109226;1254;67877;-60
2023/09/11 01:57:14;;;;;;;15.40;8.10;;;;;;;16.32;84.77;99856.73;109281;1254;73749;-59
2023/09/11 02:00:00;;;;;;;12.90;8.60;;;;;;;16.28;84.84;99858.25;109300;1254;57298;-59
2023/09/11 02:02:51;;;;;;;14.80;9.70;;;;;;;16.25;85.05;99858.80;109538;1254;60391;-60
2023/09/11 02:05:38;;;;;;;14.60;8.50;;;;;;;16.22;84.96;99859.57;109514;1254;74099;-60
2023/09/11 02:08:24;;;;;;;12.80;8.40;;;;;;;16.22;85.08;99855.85;109518;1255;67900;-60
2023/09/11 02:11:10;;;;;;;14.00;8.10;;;;;;;16.22;84.97;99855.90;109342;1256;73480;-60
2023/09/11 02:13:57;;;;;;;14.00;8.70;;;;;;;16.23;85.05;99858.67;109486;1256;60647;-60
2023/09/11 02:16:43;;;;;;;13.10;8.90;;;;;;;16.23;85.03;99860.05;109518;1256;61154;-60
2023/09/11 02:19:30;;;;;;;12.60;8.40;;;;;;;16.24;84.85;99860.29;109510;1257;72776;-59
2023/09/11 02:22:16;;;;;;;13.30;8.60;;;;;;;16.24;84.74;99857.40;109211;1256;67723;-60
2023/09/11 02:25:03;;;;;;;13.60;8.60;;;;;;;16.24;84.41;99860.32;109486;1254;72677;-59
2023/09/11 02:27:50;;;;;;;14.10;8.60;;;;;;;16.18;84.80;99852.14;109506;1254;57702;-61
2023/09/11 02:30:36;;;;;;;12.60;8.00;;;;;;;16.19;84.71;99855.46;109333;1254;60229;-60
2023/09/11 02:33:22;;;;;;;16.20;8.30;;;;;;;16.17;84.75;99854.07;109309;1254;72984;-60
2023/09/11 02:36:10;;;;;;;15.30;8.60;;;;;;;16.16;84.68;99853.77;109537;1253;68950;-61
2023/09/11 02:38:57;;;;;;;13.40;8.40;;;;;;;16.16;84.72;99853.63;109267;1254;73523;-61
2023/09/11 02:41:43;;;;;;;12.10;7.90;;;;;;;16.16;84.53;99857.88;109503;1254;58262;-60
2023/09/11 02:44:29;;;;;;;12.00;7.40;;;;;;;16.17;84.50;99857.41;109314;1256;60132;-59
2023/09/11 02:47:16;;;;;;;14.80;7.90;;;;;;;16.18;84.36;99859.32;109289;1258;72678;-59
2023/09/11 02:50:03;;;;;;;13.30;8.00;;;;;;;16.16;84.45;99856.05;109350;1253;68893;-59
2023/09/11 02:52:50;;;;;;;13.90;7.90;;;;;;;16.15;84.46;99851.35;109180;1254;73820;-60
2023/09/11 02:55:38;;;;;;;13.50;8.30;;;;;;;16.13;84.57;99848.36;109360;1254;57749;-60
2023/09/11 02:58:25;;;;;;;14.90;7.90;;;;;;;16.10;84.64;99852.23;109389;1254;59040;-60
2023/09/11 03:01:11;;;;;;;13.00;8.20;;;;;;;16.09;84.69;99849.38;109515;1254;71279;-60
2023/09/11 03:03:58;;;;;;;14.20;8.50;;;;;;;16.09;84.89;99848.98;109474;1254;66821;-59
2023/09/11 03:06:44;;;;;;;14.00;8.30;;;;;;;16.08;84.87;99846.17;109497;1254;73446;-59
2023/09/11 03:09:31;;;;;;;16.00;8.50;;;;;;;16.09;84.86;99845.95;109441;1253;59457;-58
2023/09/11 03:12:17;;;;;;;13.80;8.70;;;;;;;16.09;84.76;99843.94;109528;1254;61449;-58
2023/09/11 03:15:05;;;;;;;14.60;8.60;;;;;;;16.10;84.74;99843.53;109549;1253;72998;-60
2023/09/11 03:17:51;;;;;;;13.40;8.40;;;;;;;16.09;84.85;99838.23;109514;1254;68142;-60
2023/09/11 03:20:38;;;;;;;13.90;8.60;;;;;;;16.08;84.70;99842.52;109298;1254;72697;-60
2023/09/11 03:23:25;;;;;;;12.30;7.80;;;;;;;16.07;84.92;99840.30;109351;1254;59474;-59
2023/09/11 03:26:16;;;;;;;13.30;8.50;;;;;;;16.05;85.14;99838.80;109301;1254;61251;-59
2023/09/11 03:29:04;;;;;;;14.00;8.20;;;;;;;16.05;85.12;99833.67;109186;1255;72809;-62
2023/09/11 03:31:51;;;;;;;13.70;8.90;;;;;;;16.05;85.10;99836.02;109351;1252;68269;-62
2023/09/11 03:34:37;;;;;;;14.50;8.20;;;;;;;16.05;85.04;99836.90;109424;1253;72551;-60
2023/09/11 03:37:24;;;;;;;13.30;7.90;;;;;;;16.05;84.89;99835.29;109366;1254;57624;-59
2023/09/11 03:40:13;;;;;;;13.70;8.50;;;;;;;16.05;85.07;99834.92;109514;1254;61023;-59
2023/09/11 03:42:59;;;;;;;13.10;8.70;;;;;;;16.03;85.22;99832.84;109363;1256;74213;-59
2023/09/11 03:45:46;;;;;;;15.00;8.70;;;;;;;16.01;85.23;99830.87;109340;1254;67915;-60
2023/09/11 03:48:34;;;;;;;15.60;9.10;;;;;;;15.98;85.39;99834.33;109510;1256;72669;-59
2023/09/11 03:51:21;;;;;;;14.10;8.50;;;;;;;15.96;85.46;99829.55;109349;1255;59609;-59
2023/09/11 03:54:11;;;;;;;15.10;8.90;;;;;;;15.95;85.64;99826.65;109345;1254;58444;-61
2023/09/11 03:56:58;;;;;;;13.00;9.10;;;;;;;15.93;85.85;99825.40;109304;1254;73850;-59
2023/09/11 03:59:44;;;;;;;15.20;8.90;;;;;;;15.91;86.18;99821.73;109540;1254;68691;-60
2023/09/11 04:02:31;;;;;;;14.20;8.60;;;;;;;15.89;86.14;99821.19;109333;1254;72589;-62
2023/09/11 04:05:17;;;;;;;13.70;8.60;;;;;;;15.87;86.26;99821.58;109475;1254;57699;-60
2023/09/11 04:08:03;;;;;;;14.00;8.60;;;;;;;15.84;86.59;99822.54;109578;1254;59394;-60
2023/09/11 04:10:50;;;;;;;13.90;8.50;;;;;;;15.80;86.95;99816.04;109348;1256;72850;-60
2023/09/11 04:13:36;;;;;;;13.50;8.80;;;;;;;15.78;87.14;99816.55;109538;1253;68767;-61
2023/09/11 04:16:23;;;;;;;14.30;9.00;;;;;;;15.76;87.40;99818.88;109217;1254;72513;-61
2023/09/11 04:19:10;;;;;;;15.00;9.60;;;;;;;15.74;87.58;99822.89;109120;1254;59373;-64
2023/09/11 04:21:56;;;;;;;16.20;9.20;;;;;;;15.73;87.81;99824.73;109346;1254;60268;-61
2023/09/11 04:24:42;;;;;;;14.10;9.60;;;;;;;15.74;87.94;99828.41;109215;1254;73009;-61
2023/09/11 04:27:29;;;;;;;14.50;9.00;;;;;;;15.76;88.11;99826.23;109310;1254;67717;-63
2023/09/11 04:30:17;;;;;;;13.40;9.00;;;;;;;15.77;88.27;99823.61;109241;1254;73718;-64
2023/09/11 04:33:03;;;;;;;16.30;9.40;;;;;;;15.79;88.64;99819.66;109468;1254;58817;-61
2023/09/11 04:35:51;;;;;;;15.10;9.30;;;;;;;15.80;88.96;99819.23;109274;1254;60207;-62
2023/09/11 04:38:37;;;;;;;15.30;10.20;;;;;;;15.82;88.99;99818.98;109275;1253;180053;-62
2023/09/11 04:41:24;;;;;;;14.00;9.30;;;;;;;15.87;89.27;99817.63;109237;1253;67243;-63
2023/09/11 04:44:10;;;;;;;16.30;9.60;;;;;;;15.90;89.46;99810.33;109509;1254;71236;-64
2023/09/11 04:46:57;;;;;;;13.50;9.50;;;;;;;15.94;89.10;99808.67;109365;1253;59544;-62
2023/09/11 04:49:43;;;;;;;14.60;9.60;;;;;;;15.97;89.16;99810.54;109463;1252;58802;-62
2023/09/11 04:52:29;;;;;;;16.60;10.10;;;;;;;16.00;89.11;99804.09;109251;1253;74063;-66
2023/09/11 04:55:15;;;;;;;14.30;9.50;;;;;;;16.05;88.95;99803.65;109414;1254;67960;-62
2023/09/11 04:58:02;;;;;;;16.60;10.00;;;;;;;16.07;89.05;99803.57;109359;1257;73655;-62
2023/09/11 05:00:49;;;;;;;13.20;8.80;;;;;;;16.10;89.35;99804.98;109290;1253;58886;-64
2023/09/11 05:03:37;;;;;;;12.40;8.50;;;;;;;16.11;89.93;99808.61;109426;1254;59738;-64
2023/09/11 05:06:24;;;;;;;17.10;9.50;;;;;;;16.13;90.34;99808.32;109330;1253;71587;-63
2023/09/11 05:09:10;;;;;;;18.40;9.90;;;;;;;16.17;90.34;99808.05;109419;1257;67233;-61
2023/09/11 05:12:00;;;;;;;20.00;8.70;;;;;;;16.24;90.37;99810.05;109253;1254;72201;-61
2023/09/11 05:14:46;;;;;;;23.40;10.00;;;;;;;16.30;90.57;99808.79;109432;1254;57309;-62
2023/09/11 05:17:33;;;;;;;18.70;8.90;;;;;;;16.38;90.60;99809.77;109251;1257;60103;-62
2023/09/11 05:20:19;;;;;;;14.10;8.20;;;;;;;16.46;90.83;99808.02;109132;1256;73639;-62
2023/09/11 05:23:06;;;;;;;16.40;8.80;;;;;;;16.55;91.05;99806.77;109131;1258;67866;-62
2023/09/11 05:25:52;;;;;;;19.20;9.70;;;;;;;16.67;90.94;99809.21;109029;1257;71267;-61
2023/09/11 05:28:38;;;;;;;18.20;9.70;;;;;;;16.80;90.55;99808.19;109027;1256;60401;-62
2023/09/11 05:31:25;;;;;;;15.30;9.70;;;;;;;16.99;90.40;99812.11;109094;1256;61423;-64
2023/09/11 05:34:13;;;;;;;16.60;9.80;;;;;;;17.17;89.75;99810.66;109037;1258;73969;-65
2023/09/11 05:36:59;;;;;;;16.80;9.90;;;;;;;17.36;89.31;99805.92;109229;1256;66880;-61
2023/09/11 05:39:47;;;;;;;16.90;10.60;;;;;;;17.55;88.53;99806.99;109062;1256;71291;-61
2023/09/11 05:42:33;;;;;;;17.30;10.00;;;;;;;17.73;87.82;99804.64;109206;1256;57347;-63
2023/09/11 05:45:20;;;;;;;16.30;10.40;;;;;;;17.88;87.45;99803.92;109061;1257;61438;-64
2023/09/11 05:48:11;;;;;;;17.40;10.40;;;;;;;18.05;87.21;99806.71;109148;1257;70728;-63
2023/09/11 05:50:58;;;;;;;16.10;10.10;;;;;;;18.21;86.73;99804.66;109159;1254;66648;-62
2023/09/11 05:53:44;;;;;;;16.30;10.10;;;;;;;18.37;86.59;99807.27;109156;1254;72434;-62
2023/09/11 05:56:31;;;;;;;18.70;9.80;;;;;;;18.58;86.24;99811.44;109204;1254;59296;-62
2023/09/11 05:59:19;;;;;;;13.70;8.90;;;;;;;18.81;85.70;99811.23;109379;1257;60110;-61
2023/09/11 06:02:06;;;;;;;14.90;10.30;;;;;;;19.07;85.00;99810.06;109452;1253;70888;-60
2023/09/11 06:04:52;;;;;;;16.40;10.70;;;;;;;19.28;84.24;99808.52;109149;1257;68725;-63
2023/09/11 06:07:38;;;;;;;16.20;10.60;;;;;;;19.51;83.28;99810.31;109404;1254;73722;-63
2023/09/11 06:10:25;;;;;;;19.40;11.20;;;;;;;19.70;82.51;99809.65;109404;1257;59022;-61
2023/09/11 06:13:12;;;;;;;15.00;10.30;;;;;;;19.91;81.83;99807.52;109315;1253;61403;-64
2023/09/11 06:15:58;;;;;;;18.80;10.70;;;;;;;20.10;80.88;99806.11;109185;1257;72228;-62
2023/09/11 06:18:44;;;;;;;18.00;11.00;;;;;;;20.34;80.10;99808.23;109300;1254;68691;-66
2023/09/11 06:21:32;;;;;;;18.20;11.90;;;;;;;20.62;79.11;99808.39;109442;1253;71375;-63
2023/09/11 06:24:18;;;;;;;20.10;10.80;;;;;;;21.01;77.92;99809.10;109122;1253;59355;-64
2023/09/11 06:27:07;;;;;;;22.40;11.10;;;;;;;21.82;76.53;99808.77;109370;1253;60248;-60
2023/09/11 06:29:55;;;;;;;16.80;10.20;;;;;;;22.94;73.31;99808.07;109081;1255;73062;-61
2023/09/11 06:32:41;;;;;;;17.50;10.60;;;;;;;24.14;69.30;99812.73;109136;1256;68165;-60
2023/09/11 06:35:28;;;;;;;18.60;10.40;;;;;;;25.26;64.34;99806.27;109156;1257;72768;-63
2023/09/11 06:38:14;;;;;;;18.10;10.00;;;;;;;26.39;60.91;99807.84;109113;1257;59004;-63
2023/09/11 06:41:00;;;;;;;14.70;9.20;;;;;;;27.46;57.55;99808.05;109133;1256;60399;-64
2023/09/11 06:43:47;;;;;;;15.40;8.40;;;;;;;28.87;52.80;99798.67;109106;1256;71612;-66
2023/09/11 06:46:33;;;;;;;12.90;7.70;;;;;;;29.95;48.80;99796.45;109160;1257;67728;-65
2023/09/11 06:49:24;;;;;;;13.70;8.20;;;;;;;31.05;45.79;99795.11;109148;1257;72690;-65
2023/09/11 06:52:11;;;;;;;12.70;7.80;;;;;;;31.94;43.21;99801.96;109059;1255;57820;-65
2023/09/11 06:54:57;;;;;;;11.10;7.30;;;;;;;32.70;40.56;99800.54;109167;1256;60171;-63
2023/09/11 06:57:56;;;;;;;13.00;7.40;;;;;;;33.46;38.80;99795.99;109175;1255;73746;-62
2023/09/11 07:00:43;;;;;;;12.50;7.40;;;;;;;34.21;37.14;99801.84;109364;1253;67806;-65
2023/09/11 07:03:29;;;;;;;11.30;6.80;;;;;;;34.83;35.86;99798.06;109284;1254;72490;-65
2023/09/11 07:06:15;;;;;;;11.90;7.00;;;;;;;35.28;34.61;99805.41;109343;1253;57917;-63
2023/09/11 07:09:04;;;;;;;11.00;6.90;;;;;;;35.73;34.06;99805.30;109388;1253;61239;-65
2023/09/11 07:11:51;;;;;;;11.80;7.20;;;;;;;36.15;33.07;99804.67;109414;1254;73800;-63
2023/09/11 07:14:37;;;;;;;12.20;6.90;;;;;;;36.53;31.99;99803.23;109477;1253;68194;-64
2023/09/11 07:17:24;;;;;;;10.40;6.20;;;;;;;36.68;31.29;99801.84;109512;1253;73587;-62
2023/09/11 07:20:12;;;;;;;13.00;7.00;;;;;;;36.77;30.83;99799.55;109348;1253;57323;-63
2023/09/11 07:22:58;;;;;;;10.10;6.30;;;;;;;36.95;30.67;99798.46;109549;1253;58871;-62
2023/09/11 07:25:46;;;;;;;11.10;6.70;;;;;;;37.18;30.42;99787.71;109497;1254;73329;-63
2023/09/11 07:28:34;;;;;;;9.50;6.00;;;;;;;37.18;30.02;99788.27;109445;1253;68347;-64
2023/09/11 07:31:20;;;;;;;10.10;5.70;;;;;;;37.30;29.50;99789.30;109496;1253;71764;-63
2023/09/11 07:34:07;;;;;;;10.50;6.30;;;;;;;37.52;29.36;99787.19;109328;1253;58033;-63
2023/09/11 07:36:54;;;;;;;11.10;6.00;;;;;;;37.80;28.99;99789.54;109516;1253;58908;-63
2023/09/11 07:39:40;;;;;;;10.70;5.70;;;;;;;38.05;28.64;99788.48;109521;1253;73867;-63
2023/09/11 07:42:27;;;;;;;10.40;5.50;;;;;;;38.23;27.81;99788.17;109494;1253;67903;-64
2023/09/11 07:45:13;;;;;;;10.20;5.20;;;;;;;38.23;27.82;99786.93;109504;1252;71794;-66
2023/09/11 07:47:59;;;;;;;10.00;5.10;;;;;;;38.43;27.57;99789.69;109422;1254;59149;-66
2023/09/11 07:50:46;;;;;;;10.80;5.60;;;;;;;38.58;27.03;99790.99;109232;1253;60190;-64
2023/09/11 07:53:32;;;;;;;10.10;5.00;;;;;;;38.61;27.05;99793.38;109572;1254;73036;-64
2023/09/11 07:56:19;;;;;;;10.50;5.50;;;;;;;38.71;26.79;99794.00;109236;1254;67695;-63
2023/09/11 07:59:05;;;;;;;10.10;5.20;;;;;;;38.92;26.41;99795.73;109520;1253;73704;-66
2023/09/11 08:01:51;;;;;;;11.30;5.10;;;;;;;38.96;26.10;99790.50;109524;1253;58859;-64
2023/09/11 08:04:39;;;;;;;11.00;5.80;;;;;;;39.06;25.83;99790.66;109580;1253;60180;-65
2023/09/11 08:07:25;;;;;;;9.70;5.70;;;;;;;39.21;25.81;99790.05;109582;1253;72306;-64
2023/09/11 08:10:12;;;;;;;10.50;5.50;;;;;;;39.42;25.81;99784.68;109481;1253;68804;-64
2023/09/11 08:12:58;;;;;;;11.80;6.30;;;;;;;39.53;25.71;99784.71;109498;1252;73719;-66
2023/09/11 08:15:44;;;;;;;10.80;5.70;;;;;;;39.56;25.38;99787.25;109455;1253;57926;-63
2023/09/11 08:18:30;;;;;;;9.00;5.40;;;;;;;39.69;25.40;99785.23;109482;1253;60238;-64
2023/09/11 08:21:19;;;;;;;11.60;5.20;;;;;;;39.84;24.99;99784.08;109501;1252;73833;-63
2023/09/11 08:24:06;;;;;;;11.60;5.30;;;;;;;39.91;24.93;99783.61;109556;1253;67612;-65
2023/09/11 08:26:52;;;;;;;9.60;5.70;;;;;;;40.02;24.63;99784.63;109243;1253;73484;-63
2023/09/11 08:29:39;;;;;;;10.50;4.80;;;;;;;40.15;24.30;99785.36;109159;1254;57823;-63
2023/09/11 08:32:25;;;;;;;12.60;5.20;;;;;;;40.00;24.53;99778.65;109297;1254;61135;-63
2023/09/11 08:35:12;;;;;;;8.90;5.30;;;;;;;40.09;24.40;99778.98;109387;1253;73124;-65
2023/09/11 08:37:58;;;;;;;8.90;5.70;;;;;;;40.35;24.18;99782.05;109392;1254;67666;-63
2023/09/11 08:40:45;;;;;;;11.30;5.30;;;;;;;40.43;23.83;99781.95;109201;1254;71209;-65
2023/09/11 08:43:31;;;;;;;9.10;5.00;;;;;;;40.31;23.82;99776.46;109403;1253;57328;-63
2023/09/11 08:46:18;;;;;;;8.50;4.70;;;;;;;40.42;23.85;99779.59;109412;1254;59968;-62
2023/09/11 08:49:10;;;;;;;10.50;4.80;;;;;;;40.58;23.98;99777.83;109433;1254;74601;-64
2023/09/11 08:51:59;;;;;;;8.30;4.90;;;;;;;40.65;24.07;99776.33;109459;1253;66480;-62
2023/09/11 08:54:55;;;;;;;10.60;4.80;;;;;;;40.17;23.84;99776.60;109348;1254;71105;-63
2023/09/11 08:57:42;;;;;;;9.90;5.40;;;;;;;40.17;23.97;99773.50;109302;1254;58746;-65
2023/09/11 09:00:31;;;;;;;9.90;4.90;;;;;;;39.94;23.95;99772.31;109338;1253;61401;-64
2023/09/11 09:03:19;;;;;;;10.00;5.20;;;;;;;39.84;24.44;99771.11;109444;1252;72793;-64
2023/09/11 09:06:05;;;;;;;10.70;5.10;;;;;;;39.68;24.05;99768.56;109243;1252;67823;-64
2023/09/11 09:08:53;;;;;;;9.80;5.00;;;;;;;39.74;24.40;99768.62;109465;1252;72842;-63
2023/09/11 09:11:47;;;;;;;10.10;4.90;;;;;;;40.12;23.89;99769.13;109508;1252;57299;-65
2023/09/11 09:14:38;;;;;;;9.60;4.70;;;;;;;40.47;23.46;99770.73;109195;1252;60134;-66
2023/09/11 09:17:24;;;;;;;9.40;4.60;;;;;;;40.28;23.33;99769.05;109386;1252;73098;-62
2023/09/11 09:20:13;;;;;;;12.10;5.10;;;;;;;39.63;24.40;99770.08;109342;1253;66394;-64
2023/09/11 09:23:01;;;;;;;10.80;5.00;;;;;;;39.72;24.45;99762.33;109319;1253;73421;-65
2023/09/11 09:25:47;;;;;;;12.60;5.10;;;;;;;39.78;24.16;99762.42;109197;1252;57821;-64
2023/09/11 09:28:34;;;;;;;11.90;5.20;;;;;;;39.66;24.48;99762.04;109370;1253;60134;-64
2023/09/11 09:31:25;;;;;;;11.00;5.00;;;;;;;40.01;24.48;99755.29;109474;1252;73896;-64
2023/09/11 09:34:13;;;;;;;10.80;5.10;;;;;;;40.60;23.62;99757.52;109398;1252;67975;-66
2023/09/11 09:37:00;;;;;;;9.80;5.10;;;;;;;41.17;22.72;99753.30;109237;1252;72981;-66
2023/09/11 09:39:50;;;;;;;12.10;4.80;;;;;;;40.63;23.03;99751.98;109173;1253;58686;-61
2023/09/11 09:42:43;;;;;;;12.30;4.90;;;;;;;39.90;23.91;99748.80;109442;1253;61701;-64
2023/09/11 09:45:50;;;;;;;10.90;4.90;;;;;;;39.03;25.09;99745.62;109183;1252;73014;-67
2023/09/11 09:48:36;;;;;;;11.50;5.20;;;;;;;38.78;25.49;99737.79;108870;1260;67705;-67
2023/09/11 09:51:24;;;;;;;8.60;4.80;;;;;;;38.72;25.99;99737.42;108795;1260;74198;-63
2023/09/11 09:54:10;;;;;;;11.40;5.10;;;;;;;39.22;26.36;99734.05;108842;1260;57336;-63
2023/09/11 09:57:02;;;;;;;10.30;5.40;;;;;;;39.99;25.94;99736.38;108885;1260;59243;-65
2023/09/11 09:59:57;;;;;;;10.90;5.40;;;;;;;40.71;24.92;99733.85;108799;1260;71757;-63
2023/09/11 10:02:43;;;;;;;12.80;5.80;;;;;;;41.29;24.31;99731.80;108789;1260;66056;-65
2023/09/11 10:05:30;;;;;;;10.30;5.60;;;;;;;41.61;23.65;99731.15;108869;1259;72759;-63
2023/09/11 10:08:16;;;;;;;12.00;5.10;;;;;;;41.58;23.38;99725.44;108910;1260;57839;-65
2023/09/11 10:11:03;;;;;;;10.90;5.70;;;;;;;40.29;24.75;99730.33;108907;1260;61067;-65
2023/09/11 10:13:50;;;;;;;10.20;5.70;;;;;;;38.85;26.53;99722.73;108884;1261;72742;-64
2023/09/11 10:16:36;;;;;;;13.80;6.10;;;;;;;37.39;28.41;99719.20;108941;1260;68809;-64
2023/09/11 10:19:27;;;;;;;11.10;6.10;;;;;;;36.40;30.12;99719.52;108909;1260;73665;-63
2023/09/11 10:22:13;;;;;;;12.10;6.30;;;;;;;36.21;30.59;99719.13;108858;1260;57873;-62
2023/09/11 10:24:59;;;;;;;12.60;7.00;;;;;;;35.25;31.48;99716.04;108975;1254;59430;-62
2023/09/11 10:27:49;;;;;;;12.10;7.00;;;;;;;34.40;32.93;99712.27;109339;1254;74196;-64
2023/09/11 10:30:52;;;;;;;12.70;7.10;;;;;;;33.80;34.07;99709.59;109285;1254;67658;-64
2023/09/11 10:33:57;;;;;;;12.20;7.40;;;;;;;33.11;35.78;99705.95;109289;1254;71214;-65
2023/09/11 10:36:52;;;;;;;11.10;7.00;;;;;;;32.77;36.45;99706.20;109144;1254;57387;-61
2023/09/11 10:39:39;;;;;;;12.50;7.20;;;;;;;33.14;36.45;99702.95;109377;1254;58806;-63
2023/09/11 10:42:26;;;;;;;11.70;7.10;;;;;;;32.93;36.35;99699.52;109383;1254;72739;-61
2023/09/11 10:45:32;;;;;;;12.90;7.70;;;;;;;32.51;36.82;99701.97;109303;1254;68927;-61
2023/09/11 10:48:30;;;;;;;14.80;7.90;;;;;;;32.03;37.81;99703.17;109318;1254;72548;-62
2023/09/11 10:51:18;;;;;;;16.00;8.50;;;;;;;31.58;38.43;99706.60;109371;1254;57439;-61
2023/09/11 10:54:07;;;;;;;14.70;8.90;;;;;;;31.26;39.41;99703.89;109329;1252;58308;-63
2023/09/11 10:56:55;;;;;;;15.30;10.10;;;;;;;30.97;39.64;99702.30;109434;1252;74027;-62
2023/09/11 10:59:42;;;;;;;16.10;9.20;;;;;;;30.64;39.84;99700.55;109500;1253;68647;-63
2023/09/11 11:02:30;;;;;;;16.10;8.40;;;;;;;30.45;40.56;99695.27;109493;1252;73612;-62
2023/09/11 11:05:16;;;;;;;14.20;8.40;;;;;;;30.18;41.19;99695.90;109323;1253;58869;-62
2023/09/11 11:08:03;;;;;;;15.20;9.00;;;;;;;30.01;41.52;99697.13;109253;1253;59217;-62
2023/09/11 11:10:58;;;;;;;17.10;8.80;;;;;;;29.93;41.78;99694.86;109363;1253;72018;-64
2023/09/11 11:14:10;;;;;;;16.20;8.10;;;;;;;29.80;42.76;99692.92;109531;1252;67703;-67
2023/09/11 11:16:59;;;;;;;15.10;8.10;;;;;;;29.85;43.21;99692.04;109421;1252;72742;-62
2023/09/11 11:19:58;;;;;;;15.80;9.10;;;;;;;29.77;43.43;99688.56;109363;1253;58793;-64
2023/09/11 11:22:45;;;;;;;14.30;9.10;;;;;;;29.60;43.96;99687.46;109495;1252;60103;-64
2023/09/11 11:25:31;;;;;;;14.60;8.30;;;;;;;30.24;42.99;99683.66;109457;1252;73000;-62
2023/09/11 11:28:22;;;;;;;16.50;8.30;;;;;;;31.02;41.44;99684.42;109507;1253;67934;-63
2023/09/11 11:31:18;;;;;;;14.60;7.40;;;;;;;31.92;39.84;99686.95;109518;1252;72740;-63
2023/09/11 11:34:05;;;;;;;15.50;7.90;;;;;;;32.63;38.63;99686.28;109271;1253;58854;-62
2023/09/11 11:36:54;;;;;;;13.30;6.90;;;;;;;33.07;37.10;99687.27;109510;1252;60209;-62
2023/09/11 11:39:40;;;;;;;11.20;7.00;;;;;;;33.53;36.58;99689.59;109543;1252;72518;-63
2023/09/11 11:42:27;;;;;;;11.80;7.20;;;;;;;33.64;36.45;99691.43;109542;1252;68308;-62
2023/09/11 11:45:14;;;;;;;11.70;7.00;;;;;;;33.80;35.98;99696.23;109475;1252;73003;-62
2023/09/11 11:48:00;;;;;;;11.10;6.40;;;;;;;33.85;35.33;99692.92;109503;1252;57317;-63
2023/09/11 11:50:47;;;;;;;13.80;6.80;;;;;;;33.86;35.53;99692.69;109519;1252;61425;-64
2023/09/11 11:53:35;;;;;;;11.20;6.60;;;;;;;33.72;35.29;99694.34;109282;1252;73076;-64
2023/09/11 11:56:21;;;;;;;10.30;6.30;;;;;;;33.63;35.53;99692.77;109415;1252;68766;-62
2023/09/11 11:59:08;;;;;;;9.90;5.60;;;;;;;33.59;35.01;99691.90;109493;1253;72553;-63
2023/09/11 12:01:55;;;;;;;12.20;6.40;;;;;;;33.70;35.36;99690.69;109279;1253;57873;-62
2023/09/11 12:04:42;;;;;;;14.80;7.00;;;;;;;33.75;35.08;99693.38;109386;1253;59101;-64
2023/09/11 12:07:35;;;;;;;12.20;7.10;;;;;;;33.63;35.04;99693.75;109363;1253;73878;-63
2023/09/11 12:10:21;;;;;;;14.80;6.70;;;;;;;33.15;35.88;99693.91;109536;1252;66754;-63
2023/09/11 12:13:12;;;;;;;9.60;5.90;;;;;;;32.54;36.64;99693.55;109379;1252;71709;-62
2023/09/11 12:16:00;;;;;;;11.00;6.20;;;;;;;32.03;37.37;99695.18;109418;1255;57287;-66
2023/09/11 12:18:46;;;;;;;15.40;7.00;;;;;;;31.59;38.18;99695.73;109408;1253;60557;-63
2023/09/11 12:21:33;;;;;;;12.60;7.10;;;;;;;31.27;38.99;99695.77;109552;1252;71481;-63
2023/09/11 12:24:19;;;;;;;13.30;6.50;;;;;;;31.03;39.40;99691.02;109541;1252;66633;-63
2023/09/11 12:27:07;;;;;;;12.30;7.10;;;;;;;30.83;39.84;99691.53;109448;1252;71439;-63
2023/09/11 12:29:57;;;;;;;11.70;6.60;;;;;;;30.61;39.92;99689.20;109430;1252;57826;-62
2023/09/11 12:32:46;;;;;;;12.60;7.00;;;;;;;30.38;40.33;99690.02;109525;1252;61154;-64
2023/09/11 12:35:33;;;;;;;12.30;7.30;;;;;;;30.06;40.60;99692.32;109560;1252;71708;-62
2023/09/11 12:38:23;;;;;;;12.50;7.10;;;;;;;29.77;41.41;99687.58;109434;1252;66758;-64
2023/09/11 12:41:10;;;;;;;11.10;7.30;;;;;;;29.58;41.86;99692.38;109480;1252;72446;-63
2023/09/11 12:43:59;;;;;;;13.20;7.40;;;;;;;29.42;42.36;99693.27;109418;1252;57784;-61
2023/09/11 12:46:46;;;;;;;13.30;7.40;;;;;;;29.30;42.71;99691.23;109475;1253;61203;-63
2023/09/11 12:49:33;;;;;;;12.50;8.00;;;;;;;29.14;43.01;99693.21;109338;1253;73019;-62
2023/09/11 12:52:22;;;;;;;12.20;7.60;;;;;;;28.93;43.76;99691.42;109336;1252;68857;-63